sensor_id;sensor_type;location;lat;lon;timestamp;pressure;altitude;pressure_sealevel;temperature;humidity
15670;BME280;18524;45.190;5.732;2022-11-04T00:04:27;98856.94;;;11.92;100.00
15670;BME280;18524;45.190;5.732;2022-11-04T00:09:21;98876.97;;;11.83;100.00
15670;BME280;18524;45.190;5.732;2022-11-04T00:14:13;98884.28;;;11.80;100.00
15670;BME280;18524;45.190;5.732;2022-11-04T00:19:04;98881.50;;;11.72;100.00
15670;BME280;18524;45.190;5.732;2022-11-04T00:23:54;98867.94;;;11.67;100.00
15670;BME280;18524;45.190;5.732;2022-11-04T00:29:03;98880.25;;;11.76;100.00
15670;BME280;18524;45.190;5.732;2022-11-04T00:33:54;98878.72;;;11.73;100.00
15670;BME280;18524;45.190;5.732;2022-11-04T00:38:45;98872.91;;;11.60;100.00
15670;BME280;18524;45.190;5.732;2022-11-04T00:43:35;98866.69;;;11.71;100.00
15670;BME280;18524;45.190;5.732;2022-11-04T00:48:26;98847.91;;;11.66;100.00
15670;BME280;18524;45.190;5.732;2022-11-04T00:53:16;98840.16;;;11.64;100.00
15670;BME280;18524;45.190;5.732;2022-11-04T00:58:06;98857.16;;;11.60;100.00
15670;BME280;18524;45.190;5.732;2022-11-04T01:02:57;98853.97;;;11.66;100.00
15670;BME280;18524;45.190;5.732;2022-11-04T01:07:49;98843.88;;;11.62;100.00
15670;BME280;18524;45.190;5.732;2022-11-04T01:12:39;98830.06;;;11.59;100.00
15670;BME280;18524;45.190;5.732;2022-11-04T01:17:29;98829.47;;;11.46;100.00
15670;BME280;18524;45.190;5.732;2022-11-04T01:22:20;98829.22;;;11.49;100.00
15670;BME280;18524;45.190;5.732;2022-11-04T01:27:10;98828.66;;;11.46;100.00
15670;BME280;18524;45.190;5.732;2022-11-04T01:32:00;98832.94;;;11.37;100.00
15670;BME280;18524;45.190;5.732;2022-11-04T01:36:51;98822.28;;;11.39;100.00
15670;BME280;18524;45.190;5.732;2022-11-04T01:41:41;98814.28;;;11.31;100.00
15670;BME280;18524;45.190;5.732;2022-11-04T01:46:49;98804.47;;;11.33;100.00
15670;BME280;18524;45.190;5.732;2022-11-04T01:51:42;98803.63;;;11.22;100.00
15670;BME280;18524;45.190;5.732;2022-11-04T01:56:34;98800.81;;;11.05;100.00
15670;BME280;18524;45.190;5.732;2022-11-04T02:01:25;98801.09;;;11.02;100.00
15670;BME280;18524;45.190;5.732;2022-11-04T02:06:16;98796.94;;;10.99;100.00
15670;BME280;18524;45.190;5.732;2022-11-04T02:11:08;98789.78;;;11.01;100.00
15670;BME280;18524;45.190;5.732;2022-11-04T02:16:27;98781.63;;;10.94;100.00
15670;BME280;18524;45.190;5.732;2022-11-04T02:26:54;98765.81;;;10.75;100.00
15670;BME280;18524;45.190;5.732;2022-11-04T02:32:11;98767.78;;;10.83;100.00
15670;BME280;18524;45.190;5.732;2022-11-04T02:37:19;98764.69;;;10.68;100.00
15670;BME280;18524;45.190;5.732;2022-11-04T02:42:25;98769.50;;;10.63;100.00
15670;BME280;18524;45.190;5.732;2022-11-04T02:47:20;98759.81;;;10.54;100.00
15670;BME280;18524;45.190;5.732;2022-11-04T02:52:17;98750.97;;;10.45;100.00
15670;BME280;18524;45.190;5.732;2022-11-04T02:57:12;98731.09;;;10.43;100.00
15670;BME280;18524;45.190;5.732;2022-11-04T03:02:07;98722.25;;;10.44;100.00
15670;BME280;18524;45.190;5.732;2022-11-04T03:07:02;98731.66;;;10.46;100.00
15670;BME280;18524;45.190;5.732;2022-11-04T03:11:58;98726.41;;;10.46;100.00
15670;BME280;18524;45.190;5.732;2022-11-04T03:16:54;98730.91;;;10.34;100.00
15670;BME280;18524;45.190;5.732;2022-11-04T03:32:22;98696.53;;;10.28;100.00
15670;BME280;18524;45.190;5.732;2022-11-04T03:37:15;98701.25;;;10.34;100.00
15670;BME280;18524;45.190;5.732;2022-11-04T03:42:08;98692.69;;;10.32;100.00
15670;BME280;18524;45.190;5.732;2022-11-04T03:47:09;98689.66;;;10.37;100.00
15670;BME280;18524;45.190;5.732;2022-11-04T03:51:59;98673.94;;;10.37;100.00
15670;BME280;18524;45.190;5.732;2022-11-04T04:02:14;98666.34;;;10.33;100.00
15670;BME280;18524;45.190;5.732;2022-11-04T04:07:16;98667.84;;;10.26;100.00
15670;BME280;18524;45.190;5.732;2022-11-04T04:12:13;98670.88;;;10.31;100.00
15670;BME280;18524;45.190;5.732;2022-11-04T04:22:18;98661.00;;;10.14;100.00
15670;BME280;18524;45.190;5.732;2022-11-04T04:27:11;98667.88;;;10.06;100.00
15670;BME280;18524;45.190;5.732;2022-11-04T04:32:23;98671.69;;;10.01;100.00
15670;BME280;18524;45.190;5.732;2022-11-04T04:37:23;98662.59;;;9.96;100.00
15670;BME280;18524;45.190;5.732;2022-11-04T04:42:14;98659.75;;;10.09;100.00
15670;BME280;18524;45.190;5.732;2022-11-04T04:47:23;98657.28;;;10.07;100.00
15670;BME280;18524;45.190;5.732;2022-11-04T04:52:16;98667.66;;;9.88;100.00
15670;BME280;18524;45.190;5.732;2022-11-04T04:57:06;98663.63;;;9.84;100.00
15670;BME280;18524;45.190;5.732;2022-11-04T05:01:57;98656.13;;;9.69;100.00
15670;BME280;18524;45.190;5.732;2022-11-04T05:06:47;98643.38;;;9.55;100.00
15670;BME280;18524;45.190;5.732;2022-11-04T05:11:37;98632.47;;;9.50;100.00
15670;BME280;18524;45.190;5.732;2022-11-04T05:16:28;98630.50;;;9.43;100.00
15670;BME280;18524;45.190;5.732;2022-11-04T05:21:18;98641.78;;;9.43;100.00
15670;BME280;18524;45.190;5.732;2022-11-04T05:26:09;98638.03;;;9.36;100.00
15670;BME280;18524;45.190;5.732;2022-11-04T05:31:04;98631.06;;;9.25;100.00
15670;BME280;18524;45.190;5.732;2022-11-04T05:36:04;98627.16;;;9.20;100.00
15670;BME280;18524;45.190;5.732;2022-11-04T05:40:56;98615.69;;;9.11;100.00
15670;BME280;18524;45.190;5.732;2022-11-04T05:45:47;98636.41;;;9.03;100.00
15670;BME280;18524;45.190;5.732;2022-11-04T05:50:40;98630.94;;;9.06;100.00
15670;BME280;18524;45.190;5.732;2022-11-04T05:55:31;98632.06;;;8.92;100.00
15670;BME280;18524;45.190;5.732;2022-11-04T06:00:21;98616.06;;;9.06;100.00
15670;BME280;18524;45.190;5.732;2022-11-04T06:05:11;98610.91;;;9.16;100.00
15670;BME280;18524;45.190;5.732;2022-11-04T06:10:02;98605.97;;;9.23;100.00
15670;BME280;18524;45.190;5.732;2022-11-04T06:14:53;98601.78;;;9.31;100.00
15670;BME280;18524;45.190;5.732;2022-11-04T06:19:43;98612.06;;;9.02;100.00
15670;BME280;18524;45.190;5.732;2022-11-04T06:24:34;98601.13;;;9.18;100.00
15670;BME280;18524;45.190;5.732;2022-11-04T06:29:24;98592.16;;;9.32;100.00
15670;BME280;18524;45.190;5.732;2022-11-04T06:34:15;98579.25;;;9.40;100.00
15670;BME280;18524;45.190;5.732;2022-11-04T06:39:05;98562.00;;;9.37;100.00
15670;BME280;18524;45.190;5.732;2022-11-04T06:43:55;98565.72;;;9.35;100.00
15670;BME280;18524;45.190;5.732;2022-11-04T06:48:46;98576.22;;;9.45;100.00
15670;BME280;18524;45.190;5.732;2022-11-04T06:53:36;98574.66;;;9.63;100.00
15670;BME280;18524;45.190;5.732;2022-11-04T06:58:26;98579.44;;;9.58;100.00
15670;BME280;18524;45.190;5.732;2022-11-04T07:03:17;98576.06;;;9.67;100.00
15670;BME280;18524;45.190;5.732;2022-11-04T07:08:07;98580.00;;;9.61;100.00
15670;BME280;18524;45.190;5.732;2022-11-04T07:12:58;98567.81;;;9.71;100.00
15670;BME280;18524;45.190;5.732;2022-11-04T07:17:48;98559.44;;;9.78;100.00
15670;BME280;18524;45.190;5.732;2022-11-04T07:22:38;98559.03;;;9.92;100.00
15670;BME280;18524;45.190;5.732;2022-11-04T07:27:29;98556.06;;;10.06;100.00
15670;BME280;18524;45.190;5.732;2022-11-04T07:32:19;98549.47;;;10.12;100.00
15670;BME280;18524;45.190;5.732;2022-11-04T07:37:09;98535.16;;;10.25;100.00
15670;BME280;18524;45.190;5.732;2022-11-04T07:42:00;98531.00;;;10.23;100.00
15670;BME280;18524;45.190;5.732;2022-11-04T07:46:50;98528.41;;;10.32;100.00
15670;BME280;18524;45.190;5.732;2022-11-04T07:51:40;98525.22;;;10.39;100.00
15670;BME280;18524;45.190;5.732;2022-11-04T07:56:31;98531.72;;;10.44;100.00
15670;BME280;18524;45.190;5.732;2022-11-04T08:01:22;98515.16;;;10.63;100.00
15670;BME280;18524;45.190;5.732;2022-11-04T08:06:13;98503.53;;;10.75;100.00
15670;BME280;18524;45.190;5.732;2022-11-04T08:11:06;98498.88;;;10.79;100.00
15670;BME280;18524;45.190;5.732;2022-11-04T08:16:01;98507.56;;;10.70;100.00
15670;BME280;18524;45.190;5.732;2022-11-04T08:20:52;98482.31;;;10.78;100.00
15670;BME280;18524;45.190;5.732;2022-11-04T08:25:43;98478.25;;;10.93;100.00
15670;BME280;18524;45.190;5.732;2022-11-04T08:30:34;98490.41;;;10.94;100.00
15670;BME280;18524;45.190;5.732;2022-11-04T08:35:24;98481.28;;;10.99;100.00
15670;BME280;18524;45.190;5.732;2022-11-04T08:40:15;98471.97;;;11.14;100.00
15670;BME280;18524;45.190;5.732;2022-11-04T08:45:05;98462.03;;;11.17;100.00
15670;BME280;18524;45.190;5.732;2022-11-04T08:49:56;98447.91;;;11.28;100.00
15670;BME280;18524;45.190;5.732;2022-11-04T08:54:46;98450.53;;;11.28;100.00
15670;BME280;18524;45.190;5.732;2022-11-04T08:59:37;98439.88;;;11.30;100.00
15670;BME280;18524;45.190;5.732;2022-11-04T09:04:27;98422.16;;;11.04;100.00
15670;BME280;18524;45.190;5.732;2022-11-04T09:09:18;98419.09;;;11.09;100.00
15670;BME280;18524;45.190;5.732;2022-11-04T09:14:09;98412.44;;;11.14;100.00
15670;BME280;18524;45.190;5.732;2022-11-04T09:19:00;98418.50;;;11.15;100.00
15670;BME280;18524;45.190;5.732;2022-11-04T09:23:51;98409.25;;;11.20;100.00
15670;BME280;18524;45.190;5.732;2022-11-04T09:28:41;98395.84;;;11.23;100.00
15670;BME280;18524;45.190;5.732;2022-11-04T09:33:32;98400.78;;;11.26;100.00
15670;BME280;18524;45.190;5.732;2022-11-04T09:38:23;98389.47;;;11.26;100.00
15670;BME280;18524;45.190;5.732;2022-11-04T09:48:27;98374.72;;;11.43;100.00
15670;BME280;18524;45.190;5.732;2022-11-04T09:58:35;98378.66;;;11.56;100.00
15670;BME280;18524;45.190;5.732;2022-11-04T10:04:09;98385.84;;;11.54;100.00
15670;BME280;18524;45.190;5.732;2022-11-04T10:25:14;98394.25;;;11.58;100.00
15670;BME280;18524;45.190;5.732;2022-11-04T10:30:20;98382.03;;;11.67;100.00
15670;BME280;18524;45.190;5.732;2022-11-04T10:35:34;98389.75;;;11.68;100.00
15670;BME280;18524;45.190;5.732;2022-11-04T10:40:28;98392.53;;;11.67;100.00
15670;BME280;18524;45.190;5.732;2022-11-04T10:45:30;98391.41;;;11.69;100.00
15670;BME280;18524;45.190;5.732;2022-11-04T10:51:00;98384.72;;;11.75;100.00
15670;BME280;18524;45.190;5.732;2022-11-04T10:56:32;98363.16;;;11.81;100.00
15670;BME280;18524;45.190;5.732;2022-11-04T11:01:28;98357.69;;;11.92;100.00
15670;BME280;18524;45.190;5.732;2022-11-04T11:11:10;98351.06;;;11.88;100.00
15670;BME280;18524;45.190;5.732;2022-11-04T11:16:06;98367.44;;;11.82;100.00
15670;BME280;18524;45.190;5.732;2022-11-04T11:21:04;98375.66;;;11.69;100.00
15670;BME280;18524;45.190;5.732;2022-11-04T11:25:56;98391.03;;;11.64;100.00
15670;BME280;18524;45.190;5.732;2022-11-04T11:35:41;98413.19;;;11.34;100.00
15670;BME280;18524;45.190;5.732;2022-11-04T11:40:36;98428.69;;;11.27;100.00
15670;BME280;18524;45.190;5.732;2022-11-04T11:45:28;98432.34;;;11.17;100.00
15670;BME280;18524;45.190;5.732;2022-11-04T12:00:13;98423.50;;;11.18;100.00
15670;BME280;18524;45.190;5.732;2022-11-04T12:05:10;98431.03;;;11.31;100.00
15670;BME280;18524;45.190;5.732;2022-11-04T12:15:34;98441.84;;;11.45;100.00
15670;BME280;18524;45.190;5.732;2022-11-04T12:46:17;98444.38;;;11.65;100.00
15670;BME280;18524;45.190;5.732;2022-11-04T12:56:53;98460.72;;;11.86;100.00
15670;BME280;18524;45.190;5.732;2022-11-04T13:01:51;98465.56;;;12.08;100.00
15670;BME280;18524;45.190;5.732;2022-11-04T13:06:51;98468.94;;;12.01;100.00
15670;BME280;18524;45.190;5.732;2022-11-04T13:11:53;98474.78;;;12.12;100.00
15670;BME280;18524;45.190;5.732;2022-11-04T13:16:46;98457.53;;;12.28;100.00
15670;BME280;18524;45.190;5.732;2022-11-04T13:21:39;98453.94;;;12.29;100.00
15670;BME280;18524;45.190;5.732;2022-11-04T13:26:30;98453.03;;;12.38;100.00
15670;BME280;18524;45.190;5.732;2022-11-04T13:41:27;98457.59;;;12.18;100.00
15670;BME280;18524;45.190;5.732;2022-11-04T13:51:12;98459.41;;;12.17;100.00
15670;BME280;18524;45.190;5.732;2022-11-04T13:56:03;98476.44;;;12.13;100.00
15670;BME280;18524;45.190;5.732;2022-11-04T14:01:29;98482.38;;;12.15;100.00
15670;BME280;18524;45.190;5.732;2022-11-04T14:06:52;98501.69;;;12.06;100.00
15670;BME280;18524;45.190;5.732;2022-11-04T14:22:29;98519.19;;;11.61;100.00
15670;BME280;18524;45.190;5.732;2022-11-04T14:27:26;98512.28;;;11.59;100.00
15670;BME280;18524;45.190;5.732;2022-11-04T14:32:24;98515.75;;;11.60;100.00
15670;BME280;18524;45.190;5.732;2022-11-04T14:37:21;98533.00;;;11.63;98.62
15670;BME280;18524;45.190;5.732;2022-11-04T14:47:33;98532.28;;;11.33;100.00
15670;BME280;18524;45.190;5.732;2022-11-04T14:52:35;98535.88;;;11.32;100.00
15670;BME280;18524;45.190;5.732;2022-11-04T14:57:29;98536.59;;;11.15;100.00
15670;BME280;18524;45.190;5.732;2022-11-04T15:02:26;98537.34;;;10.98;100.00
15670;BME280;18524;45.190;5.732;2022-11-04T15:07:24;98538.88;;;10.90;100.00
15670;BME280;18524;45.190;5.732;2022-11-04T15:12:17;98542.19;;;10.92;100.00
15670;BME280;18524;45.190;5.732;2022-11-04T15:17:30;98538.75;;;10.82;100.00
15670;BME280;18524;45.190;5.732;2022-11-04T15:22:22;98545.94;;;10.80;100.00
15670;BME280;18524;45.190;5.732;2022-11-04T15:27:16;98555.59;;;10.89;100.00
15670;BME280;18524;45.190;5.732;2022-11-04T15:32:15;98552.69;;;10.92;100.00
15670;BME280;18524;45.190;5.732;2022-11-04T15:37:06;98562.19;;;10.93;100.00
15670;BME280;18524;45.190;5.732;2022-11-04T15:42:00;98555.59;;;10.89;100.00
15670;BME280;18524;45.190;5.732;2022-11-04T15:52:17;98562.09;;;10.85;100.00
15670;BME280;18524;45.190;5.732;2022-11-04T15:57:15;98569.13;;;10.85;100.00
15670;BME280;18524;45.190;5.732;2022-11-04T16:02:21;98571.03;;;10.73;100.00
15670;BME280;18524;45.190;5.732;2022-11-04T16:12:15;98594.78;;;10.72;100.00
15670;BME280;18524;45.190;5.732;2022-11-04T16:17:09;98597.13;;;10.75;100.00
15670;BME280;18524;45.190;5.732;2022-11-04T16:22:03;98609.97;;;10.78;100.00
15670;BME280;18524;45.190;5.732;2022-11-04T16:26:55;98615.06;;;10.60;100.00
15670;BME280;18524;45.190;5.732;2022-11-04T16:37:06;98629.56;;;10.54;100.00
15670;BME280;18524;45.190;5.732;2022-11-04T16:41:56;98641.00;;;10.44;100.00
15670;BME280;18524;45.190;5.732;2022-11-04T16:46:47;98644.97;;;10.38;100.00
15670;BME280;18524;45.190;5.732;2022-11-04T16:51:37;98638.19;;;10.36;100.00
15670;BME280;18524;45.190;5.732;2022-11-04T16:56:27;98637.78;;;10.30;100.00
15670;BME280;18524;45.190;5.732;2022-11-04T17:01:18;98640.38;;;10.21;100.00
15670;BME280;18524;45.190;5.732;2022-11-04T17:06:11;98642.16;;;10.20;100.00
15670;BME280;18524;45.190;5.732;2022-11-04T17:11:03;98645.13;;;10.06;100.00
15670;BME280;18524;45.190;5.732;2022-11-04T17:15:53;98643.28;;;9.97;100.00
15670;BME280;18524;45.190;5.732;2022-11-04T17:20:52;98640.53;;;9.98;100.00
15670;BME280;18524;45.190;5.732;2022-11-04T17:25:44;98639.91;;;10.06;100.00
15670;BME280;18524;45.190;5.732;2022-11-04T17:30:34;98635.69;;;9.94;100.00
15670;BME280;18524;45.190;5.732;2022-11-04T17:35:25;98646.88;;;9.96;100.00
15670;BME280;18524;45.190;5.732;2022-11-04T17:40:16;98647.56;;;9.98;100.00
15670;BME280;18524;45.190;5.732;2022-11-04T17:45:08;98657.91;;;9.99;100.00
15670;BME280;18524;45.190;5.732;2022-11-04T17:49:58;98667.22;;;10.13;100.00
15670;BME280;18524;45.190;5.732;2022-11-04T17:54:48;98677.84;;;10.12;100.00
15670;BME280;18524;45.190;5.732;2022-11-04T17:59:39;98693.69;;;10.10;100.00
15670;BME280;18524;45.190;5.732;2022-11-04T18:04:29;98696.44;;;10.09;100.00
15670;BME280;18524;45.190;5.732;2022-11-04T18:09:20;98711.06;;;10.11;100.00
15670;BME280;18524;45.190;5.732;2022-11-04T18:14:10;98721.41;;;10.13;100.00
15670;BME280;18524;45.190;5.732;2022-11-04T18:19:03;98727.47;;;10.13;100.00
15670;BME280;18524;45.190;5.732;2022-11-04T18:23:54;98742.44;;;10.22;100.00
15670;BME280;18524;45.190;5.732;2022-11-04T18:28:44;98746.84;;;10.01;100.00
15670;BME280;18524;45.190;5.732;2022-11-04T18:33:35;98749.72;;;9.98;100.00
15670;BME280;18524;45.190;5.732;2022-11-04T18:38:25;98763.16;;;10.05;100.00
15670;BME280;18524;45.190;5.732;2022-11-04T18:43:16;98765.88;;;10.03;100.00
15670;BME280;18524;45.190;5.732;2022-11-04T18:48:06;98771.13;;;10.03;100.00
15670;BME280;18524;45.190;5.732;2022-11-04T18:52:57;98763.03;;;10.06;100.00
15670;BME280;18524;45.190;5.732;2022-11-04T18:57:47;98780.00;;;10.12;100.00
15670;BME280;18524;45.190;5.732;2022-11-04T19:02:37;98776.63;;;10.21;100.00
15670;BME280;18524;45.190;5.732;2022-11-04T19:07:28;98788.97;;;10.09;100.00
15670;BME280;18524;45.190;5.732;2022-11-04T19:12:18;98795.72;;;10.12;100.00
15670;BME280;18524;45.190;5.732;2022-11-04T19:17:27;98802.44;;;10.25;100.00
15670;BME280;18524;45.190;5.732;2022-11-04T19:22:17;98796.31;;;10.15;100.00
15670;BME280;18524;45.190;5.732;2022-11-04T19:27:08;98792.59;;;10.18;100.00
15670;BME280;18524;45.190;5.732;2022-11-04T19:31:58;98792.84;;;10.15;100.00
15670;BME280;18524;45.190;5.732;2022-11-04T19:36:49;98789.94;;;10.08;100.00
15670;BME280;18524;45.190;5.732;2022-11-04T19:41:39;98794.94;;;10.00;100.00
15670;BME280;18524;45.190;5.732;2022-11-04T19:46:48;98797.53;;;9.90;100.00
15670;BME280;18524;45.190;5.732;2022-11-04T19:51:39;98801.50;;;10.06;100.00
15670;BME280;18524;45.190;5.732;2022-11-04T19:56:30;98805.78;;;10.07;100.00
15670;BME280;18524;45.190;5.732;2022-11-04T20:01:22;98823.03;;;10.09;100.00
15670;BME280;18524;45.190;5.732;2022-11-04T20:06:14;98844.94;;;10.08;100.00
15670;BME280;18524;45.190;5.732;2022-11-04T20:11:05;98848.78;;;10.04;100.00
15670;BME280;18524;45.190;5.732;2022-11-04T20:15:56;98866.88;;;10.07;100.00
15670;BME280;18524;45.190;5.732;2022-11-04T20:20:47;98892.00;;;9.98;100.00
15670;BME280;18524;45.190;5.732;2022-11-04T20:25:37;98901.19;;;10.04;100.00
15670;BME280;18524;45.190;5.732;2022-11-04T20:30:27;98900.69;;;9.99;100.00
15670;BME280;18524;45.190;5.732;2022-11-04T20:35:18;98908.22;;;9.92;100.00
15670;BME280;18524;45.190;5.732;2022-11-04T20:40:09;98928.03;;;9.85;100.00
15670;BME280;18524;45.190;5.732;2022-11-04T20:45:00;98931.59;;;9.84;100.00
15670;BME280;18524;45.190;5.732;2022-11-04T20:49:50;98932.94;;;9.79;100.00
15670;BME280;18524;45.190;5.732;2022-11-04T20:54:41;98958.03;;;9.81;100.00
15670;BME280;18524;45.190;5.732;2022-11-04T20:59:31;98971.38;;;9.78;100.00
15670;BME280;18524;45.190;5.732;2022-11-04T21:04:22;98975.78;;;9.78;100.00
15670;BME280;18524;45.190;5.732;2022-11-04T21:09:14;98969.13;;;9.74;100.00
15670;BME280;18524;45.190;5.732;2022-11-04T21:14:06;98974.38;;;9.62;100.00
15670;BME280;18524;45.190;5.732;2022-11-04T21:18:57;98984.59;;;9.65;100.00
15670;BME280;18524;45.190;5.732;2022-11-04T21:23:47;98987.34;;;9.64;100.00
15670;BME280;18524;45.190;5.732;2022-11-04T21:28:38;98987.59;;;9.72;100.00
15670;BME280;18524;45.190;5.732;2022-11-04T21:33:29;98996.63;;;9.79;100.00
15670;BME280;18524;45.190;5.732;2022-11-04T21:38:19;99000.31;;;9.77;100.00
15670;BME280;18524;45.190;5.732;2022-11-04T21:43:10;99012.22;;;9.69;100.00
15670;BME280;18524;45.190;5.732;2022-11-04T21:48:01;99015.56;;;9.71;100.00
15670;BME280;18524;45.190;5.732;2022-11-04T21:52:52;99015.78;;;9.80;100.00
15670;BME280;18524;45.190;5.732;2022-11-04T21:57:42;99034.34;;;9.77;100.00
15670;BME280;18524;45.190;5.732;2022-11-04T22:02:33;99048.03;;;9.80;100.00
15670;BME280;18524;45.190;5.732;2022-11-04T22:07:29;99049.81;;;9.80;100.00
15670;BME280;18524;45.190;5.732;2022-11-04T22:12:38;99043.88;;;9.78;100.00
15670;BME280;18524;45.190;5.732;2022-11-04T22:17:29;99045.28;;;9.93;100.00
15670;BME280;18524;45.190;5.732;2022-11-04T22:22:19;99039.66;;;9.97;100.00
15670;BME280;18524;45.190;5.732;2022-11-04T22:27:09;99049.69;;;9.92;100.00
15670;BME280;18524;45.190;5.732;2022-11-04T22:32:00;99045.88;;;9.96;100.00
15670;BME280;18524;45.190;5.732;2022-11-04T22:36:50;99054.94;;;10.03;100.00
15670;BME280;18524;45.190;5.732;2022-11-04T22:41:41;99053.84;;;9.95;100.00
15670;BME280;18524;45.190;5.732;2022-11-04T22:46:32;99062.66;;;10.05;99.81
15670;BME280;18524;45.190;5.732;2022-11-04T22:51:24;99078.00;;;9.98;99.93
15670;BME280;18524;45.190;5.732;2022-11-04T22:56:15;99086.72;;;9.88;100.00
15670;BME280;18524;45.190;5.732;2022-11-04T23:01:09;99081.25;;;9.80;100.00
15670;BME280;18524;45.190;5.732;2022-11-04T23:06:01;99080.06;;;9.84;100.00
15670;BME280;18524;45.190;5.732;2022-11-04T23:10:57;99094.34;;;9.91;100.00
15670;BME280;18524;45.190;5.732;2022-11-04T23:16:11;99097.06;;;9.89;100.00
15670;BME280;18524;45.190;5.732;2022-11-04T23:21:21;99097.19;;;9.88;100.00
15670;BME280;18524;45.190;5.732;2022-11-04T23:26:30;99100.53;;;9.90;100.00
15670;BME280;18524;45.190;5.732;2022-11-04T23:31:20;99106.94;;;9.97;100.00
15670;BME280;18524;45.190;5.732;2022-11-04T23:36:11;99114.09;;;9.95;100.00
15670;BME280;18524;45.190;5.732;2022-11-04T23:41:20;99120.63;;;10.00;99.90
15670;BME280;18524;45.190;5.732;2022-11-04T23:46:29;99121.47;;;9.90;100.00
15670;BME280;18524;45.190;5.732;2022-11-04T23:51:38;99115.78;;;9.85;100.00
15670;BME280;18524;45.190;5.732;2022-11-04T23:56:47;99121.38;;;9.91;100.00
